createdAt,value
2018-07-28T00:02:28.210Z,23.5
2018-07-28T00:07:28.005Z,23.4
2018-07-28T00:12:27.275Z,23.1
2018-07-28T00:17:27.182Z,23.0
2018-07-28T00:22:27.561Z,22.9
2018-07-28T00:27:27.659Z,22.8
2018-07-28T00:32:27.745Z,22.8
2018-07-28T00:37:27.449Z,22.8
2018-07-28T00:42:27.415Z,22.7
2018-07-28T00:47:29.001Z,22.7
2018-07-28T00:52:28.212Z,22.6
2018-07-28T00:57:27.409Z,22.5
2018-07-28T01:02:28.045Z,22.5
2018-07-28T01:07:28.237Z,22.3
2018-07-28T01:12:26.773Z,22.3
2018-07-28T01:17:28.113Z,22.2
2018-07-28T01:22:27.808Z,22.2
2018-07-28T01:27:27.907Z,22.1
2018-07-28T01:32:27.321Z,22.1
2018-07-28T01:37:27.872Z,22.0
2018-07-28T01:42:27.025Z,21.9
2018-07-28T01:47:28.043Z,21.7
2018-07-28T01:52:27.370Z,21.7
2018-07-28T01:57:27.601Z,21.6
2018-07-28T02:02:28.458Z,21.5
2018-07-28T02:07:28.238Z,21.4
2018-07-28T02:12:27.418Z,21.4
2018-07-28T02:17:28.670Z,21.4
2018-07-28T02:22:27.437Z,21.3
2018-07-28T02:27:27.595Z,21.2
2018-07-28T02:32:28.544Z,21.0
2018-07-28T02:37:27.770Z,20.9
2018-07-28T02:42:28.222Z,20.9
2018-07-28T02:47:28.203Z,20.7
2018-07-28T02:52:28.066Z,20.8
2018-07-28T02:57:28.301Z,20.7
2018-07-28T03:02:27.207Z,20.6
2018-07-28T03:07:29.443Z,20.6
2018-07-28T03:12:29.516Z,20.5
2018-07-28T03:17:27.895Z,20.5
2018-07-28T03:22:27.457Z,20.4
2018-07-28T03:27:28.055Z,20.4
2018-07-28T03:32:27.867Z,20.3
2018-07-28T03:37:27.319Z,19.9
2018-07-28T03:42:27.509Z,19.8
2018-07-28T03:47:28.750Z,20.0
2018-07-28T03:52:27.453Z,20.0
2018-07-28T03:57:27.765Z,20.1
2018-07-28T04:02:27.884Z,20.1
2018-07-28T04:07:28.658Z,20.1
2018-07-28T04:12:28.002Z,20.3
2018-07-28T04:17:28.179Z,20.2
2018-07-28T04:22:27.815Z,20.3
2018-07-28T04:27:28.560Z,20.3
2018-07-28T04:32:28.491Z,20.4
2018-07-28T04:37:27.587Z,20.3
2018-07-28T04:42:27.254Z,20.4
2018-07-28T04:47:28.751Z,20.6
2018-07-28T04:52:27.988Z,20.9
2018-07-28T04:57:28.054Z,20.9
2018-07-28T05:02:27.883Z,21.1
2018-07-28T05:07:28.672Z,21.2
2018-07-28T05:12:28.788Z,20.9
2018-07-28T05:17:28.670Z,20.7
2018-07-28T05:22:28.413Z,20.7
2018-07-28T05:27:28.443Z,22.0
2018-07-28T05:32:28.708Z,21.9
2018-07-28T05:37:28.058Z,22.6
2018-07-28T05:42:28.059Z,23.2
2018-07-28T05:47:28.187Z,23.7
2018-07-28T05:52:28.076Z,24.6
2018-07-28T05:57:27.974Z,24.6
2018-07-28T06:02:28.783Z,24.6
2018-07-28T06:07:28.647Z,24.6
2018-07-28T06:12:28.130Z,24.6
2018-07-28T06:17:28.274Z,24.5
2018-07-28T06:22:28.132Z,24.5
2018-07-28T06:27:28.496Z,24.3
2018-07-28T06:32:28.525Z,24.1
2018-07-28T06:37:28.269Z,24.0
2018-07-28T06:42:27.581Z,23.8
2018-07-28T06:47:28.693Z,23.6
2018-07-28T06:52:27.591Z,23.4
2018-07-28T06:57:27.812Z,23.4
2018-07-28T07:02:27.861Z,23.8
2018-07-28T07:07:28.738Z,24.1
2018-07-28T07:12:27.677Z,24.5
2018-07-28T07:17:28.133Z,24.8
2018-07-28T07:22:28.715Z,25.0
2018-07-28T07:27:27.485Z,25.0
2018-07-28T07:32:27.765Z,25.0
2018-07-28T07:37:27.316Z,24.9
2018-07-28T07:42:28.107Z,24.8
2018-07-28T07:47:28.866Z,24.9
2018-07-28T07:52:28.467Z,25.1
2018-07-28T07:57:28.446Z,25.3
2018-07-28T08:02:27.976Z,25.9
2018-07-28T08:07:27.665Z,25.9
2018-07-28T08:12:28.247Z,26.0
2018-07-28T08:17:28.775Z,26.2
2018-07-28T08:22:28.303Z,26.4
2018-07-28T08:27:27.752Z,26.5
2018-07-28T08:32:28.479Z,26.4
2018-07-28T08:37:28.476Z,26.3
2018-07-28T08:42:27.587Z,26.6
2018-07-28T08:47:28.296Z,27.1
2018-07-28T08:52:27.968Z,28.6
2018-07-28T08:57:27.791Z,28.6
2018-07-28T09:02:28.902Z,29.1
2018-07-28T09:07:28.287Z,29.8
2018-07-28T09:12:28.224Z,30.0
2018-07-28T09:17:28.534Z,29.9
2018-07-28T09:22:27.642Z,29.9
2018-07-28T09:27:27.911Z,29.8
2018-07-28T09:32:28.126Z,30.0
2018-07-28T09:37:27.664Z,30.5
2018-07-28T09:42:28.797Z,30.4
2018-07-28T09:47:28.144Z,30.7
2018-07-28T09:52:27.923Z,30.5
2018-07-28T09:57:27.621Z,31.3
2018-07-28T10:02:28.647Z,31.4
2018-07-28T10:07:28.963Z,32.0
2018-07-28T10:12:28.288Z,32.4
2018-07-28T10:17:27.748Z,32.8
2018-07-28T10:22:27.833Z,32.7
2018-07-28T10:27:29.131Z,32.3
2018-07-28T10:32:27.827Z,32.0
2018-07-28T10:37:27.768Z,32.0
2018-07-28T10:42:28.620Z,32.4
2018-07-28T10:47:27.318Z,33.3
2018-07-28T10:52:27.512Z,33.2
2018-07-28T10:57:28.540Z,33.5
2018-07-28T11:02:27.903Z,33.9
2018-07-28T11:07:28.123Z,33.6
2018-07-28T11:12:27.782Z,33.7
2018-07-28T11:17:28.784Z,33.9
2018-07-28T11:22:27.830Z,33.3
2018-07-28T11:27:28.409Z,33.0
2018-07-28T11:32:28.137Z,33.0
2018-07-28T11:37:27.817Z,32.8
2018-07-28T11:42:28.745Z,32.8
2018-07-28T11:47:28.328Z,32.8
2018-07-28T11:52:28.049Z,33.0
2018-07-28T11:57:28.602Z,33.3
2018-07-28T12:02:28.287Z,33.7
2018-07-28T12:07:28.324Z,34.0
2018-07-28T12:12:27.779Z,34.6
2018-07-28T12:17:28.631Z,35.4
2018-07-28T12:22:29.065Z,35.2
2018-07-28T12:27:28.307Z,35.2
2018-07-28T12:32:27.724Z,34.8
2018-07-28T12:37:29.145Z,34.2
2018-07-28T12:42:27.622Z,34.2
2018-07-28T12:47:28.377Z,34.3
2018-07-28T12:52:28.842Z,34.2
2018-07-28T12:57:27.959Z,33.9
2018-07-28T13:02:27.918Z,33.6
2018-07-28T13:07:27.915Z,33.4
2018-07-28T13:12:27.999Z,33.3
2018-07-28T13:17:28.152Z,33.4
2018-07-28T13:22:29.053Z,33.5
2018-07-28T13:27:27.507Z,33.5
2018-07-28T13:32:28.346Z,33.5
2018-07-28T13:37:28.763Z,32.9
2018-07-28T13:42:28.202Z,32.6
2018-07-28T13:47:28.351Z,32.6
2018-07-28T13:52:28.083Z,32.4
2018-07-28T13:57:28.172Z,32.2
2018-07-28T14:02:28.407Z,32.0
2018-07-28T14:07:28.130Z,32.0
2018-07-28T14:12:27.579Z,31.0
2018-07-28T14:17:28.316Z,30.2
2018-07-28T14:22:28.669Z,30.2
2018-07-28T14:27:27.901Z,29.8
2018-07-28T14:32:28.201Z,29.8
2018-07-28T14:37:27.985Z,30.1
2018-07-28T14:42:27.733Z,30.2
2018-07-28T14:47:28.060Z,29.8
2018-07-28T14:52:27.527Z,29.7
2018-07-28T14:57:28.480Z,29.7
2018-07-28T15:02:28.272Z,29.8
2018-07-28T15:07:28.140Z,29.7
2018-07-28T15:12:27.841Z,29.4
2018-07-28T15:17:28.486Z,29.1
2018-07-28T15:22:28.400Z,28.9
2018-07-28T15:27:28.358Z,28.5
2018-07-28T15:32:27.562Z,28.1
2018-07-28T15:37:28.533Z,27.9
2018-07-28T15:42:29.512Z,27.7
2018-07-28T15:47:28.314Z,27.5
2018-07-28T15:52:29.248Z,27.4
2018-07-28T15:57:28.498Z,27.3
2018-07-28T16:02:29.773Z,27.2
2018-07-28T16:07:28.156Z,27.1
2018-07-28T16:12:28.295Z,26.9
2018-07-28T16:17:27.566Z,26.9
2018-07-28T16:22:27.454Z,26.8
2018-07-28T16:27:27.806Z,26.8
2018-07-28T16:32:29.077Z,26.8
2018-07-28T16:37:29.528Z,26.7
2018-07-28T16:42:28.230Z,26.8
2018-07-28T16:47:29.068Z,26.7
2018-07-28T16:52:28.428Z,26.7
2018-07-28T16:57:28.197Z,26.7
2018-07-28T17:02:28.093Z,26.7
2018-07-28T17:07:28.604Z,26.5
2018-07-28T17:12:27.985Z,26.4
2018-07-28T17:17:29.003Z,26.3
2018-07-28T17:22:28.326Z,26.3
2018-07-28T17:27:27.062Z,26.3
2018-07-28T17:32:28.999Z,26.4
2018-07-28T17:37:27.512Z,26.6
2018-07-28T17:42:29.145Z,26.9
2018-07-28T17:47:27.715Z,28.3
2018-07-28T17:52:27.679Z,28.6
2018-07-28T17:57:26.999Z,28.6
2018-07-28T18:02:28.010Z,28.0
2018-07-28T18:07:27.413Z,27.5
2018-07-28T18:12:27.862Z,27.4
2018-07-28T18:17:27.927Z,27.0
2018-07-28T18:22:28.257Z,26.2
2018-07-28T18:27:28.339Z,26.2
2018-07-28T18:32:27.842Z,26.0
2018-07-28T18:37:28.166Z,25.8
2018-07-28T18:42:28.613Z,25.8
2018-07-28T18:47:28.031Z,25.7
2018-07-28T18:52:27.534Z,25.6
2018-07-28T18:57:27.527Z,25.5
2018-07-28T19:02:28.126Z,25.4
2018-07-28T19:07:28.646Z,25.3
2018-07-28T19:12:28.551Z,25.2
2018-07-28T19:17:28.546Z,25.1
2018-07-28T19:22:27.978Z,25.1
2018-07-28T19:27:28.725Z,25.0
2018-07-28T19:32:29.321Z,24.9
2018-07-28T19:37:28.492Z,24.7
2018-07-28T19:42:27.950Z,24.7
2018-07-28T19:47:28.279Z,24.6
2018-07-28T19:52:27.483Z,24.5
2018-07-28T19:57:27.323Z,24.4
2018-07-28T20:02:29.017Z,24.3
2018-07-28T20:07:28.336Z,24.1
2018-07-28T20:12:27.655Z,24.0
2018-07-28T20:17:27.681Z,23.9
2018-07-28T20:22:26.618Z,23.8
2018-07-28T20:27:27.280Z,23.5
2018-07-28T20:32:27.548Z,23.5
2018-07-28T20:37:27.715Z,23.5
2018-07-28T20:42:27.438Z,23.5
2018-07-28T20:47:27.686Z,23.5
2018-07-28T20:52:27.699Z,23.4
2018-07-28T20:57:27.456Z,23.4
2018-07-28T21:02:27.195Z,23.3
2018-07-28T21:07:27.797Z,23.3
2018-07-28T21:12:27.257Z,23.3
2018-07-28T21:17:27.676Z,23.2
2018-07-28T21:22:27.329Z,23.2
2018-07-28T21:27:27.584Z,23.1
2018-07-28T21:32:28.483Z,23.0
2018-07-28T21:37:28.646Z,23.0
2018-07-28T21:42:28.005Z,22.9
2018-07-28T21:47:28.149Z,22.8
2018-07-28T21:52:28.208Z,22.7
2018-07-28T21:57:27.057Z,22.6
2018-07-28T22:02:28.132Z,22.5
2018-07-28T22:07:27.137Z,22.4
2018-07-28T22:12:26.521Z,22.4
2018-07-28T22:22:43.959Z,22.2
2018-07-28T22:27:44.489Z,22.2
2018-07-28T22:32:43.415Z,22.1
2018-07-28T22:37:42.630Z,21.8
2018-07-28T22:42:43.196Z,21.6
2018-07-28T22:47:43.785Z,21.6
2018-07-28T22:52:42.807Z,21.5
2018-07-28T22:57:42.488Z,21.5
2018-07-28T23:02:43.078Z,21.4
2018-07-28T23:07:43.513Z,21.2
2018-07-28T23:12:27.177Z,21.2
2018-07-28T23:17:27.526Z,21.1
2018-07-28T23:22:27.103Z,21.1
2018-07-28T23:27:26.690Z,21.1
2018-07-28T23:32:27.299Z,20.9
2018-07-28T23:37:26.959Z,20.8
2018-07-28T23:42:27.373Z,20.6
2018-07-28T23:47:27.617Z,20.5
2018-07-28T23:52:27.555Z,20.5
2018-07-28T23:57:27.391Z,20.5
